sensor_id;sensor_type;location;lat;lon;timestamp;temperature;humidity
71117;SHT31;58775;46.992;9.518;2023-05-29T05:36:39;16.42;76.27
71117;SHT31;58775;46.992;9.518;2023-05-29T05:38:47;16.44;74.07
71117;SHT31;58775;46.992;9.518;2023-05-29T05:40:51;16.56;73.68
71117;SHT31;58775;46.992;9.518;2023-05-29T09:33:07;30.07;40.75
71117;SHT31;58775;46.992;9.518;2023-05-29T09:41:45;30.15;41.33
71117;SHT31;58775;46.992;9.518;2023-05-29T09:43:52;30.04;39.08
71117;SHT31;58775;46.992;9.518;2023-05-29T09:47:02;31.82;39.44
71117;SHT31;58775;46.992;9.518;2023-05-29T10:13:18;31.84;36.46
71117;SHT31;58775;46.992;9.518;2023-05-29T10:19:28;32.12;37.63
71117;SHT31;58775;46.992;9.518;2023-05-29T10:21:31;32.42;38.02
71117;SHT31;58775;46.992;9.518;2023-05-29T10:26:26;32.11;37.20
71117;SHT31;58775;46.992;9.518;2023-05-29T10:28:30;30.38;38.81
71117;SHT31;58775;46.992;9.518;2023-05-29T10:31:05;30.25;41.47
71117;SHT31;58775;46.992;9.518;2023-05-29T10:33:56;30.68;38.66
71117;SHT31;58775;46.992;9.518;2023-05-29T10:42:40;28.79;40.49
71117;SHT31;58775;46.992;9.518;2023-05-29T10:44:46;28.92;40.66
71117;SHT31;58775;46.992;9.518;2023-05-29T10:53:25;28.03;42.22
71117;SHT31;58775;46.992;9.518;2023-05-29T10:59:18;27.80;45.27
71117;SHT31;58775;46.992;9.518;2023-05-29T11:01:38;28.76;44.18
71117;SHT31;58775;46.992;9.518;2023-05-29T11:06:22;28.31;43.64
71117;SHT31;58775;46.992;9.518;2023-05-29T11:08:35;28.13;45.51
71117;SHT31;58775;46.992;9.518;2023-05-29T11:25:39;28.52;40.88
71117;SHT31;58775;46.992;9.518;2023-05-29T11:27:49;28.95;43.78
71117;SHT31;58775;46.992;9.518;2023-05-29T11:29:54;29.61;43.04
71117;SHT31;58775;46.992;9.518;2023-05-29T11:32:05;29.10;43.55
71117;SHT31;58775;46.992;9.518;2023-05-29T11:34:15;29.71;40.62
71117;SHT31;58775;46.992;9.518;2023-05-29T11:36:18;29.45;43.25
71117;SHT31;58775;46.992;9.518;2023-05-29T11:38:22;30.80;41.39
71117;SHT31;58775;46.992;9.518;2023-05-29T11:40:27;31.26;39.90
71117;SHT31;58775;46.992;9.518;2023-05-29T11:42:30;30.38;40.50
71117;SHT31;58775;46.992;9.518;2023-05-29T11:44:33;30.82;41.09
71117;SHT31;58775;46.992;9.518;2023-05-29T11:46:36;30.15;41.70
71117;SHT31;58775;46.992;9.518;2023-05-29T11:48:47;29.23;41.37
71117;SHT31;58775;46.992;9.518;2023-05-29T11:50:53;30.27;42.39
71117;SHT31;58775;46.992;9.518;2023-05-29T11:52:57;30.84;40.92
71117;SHT31;58775;46.992;9.518;2023-05-29T11:55:21;28.91;41.43
71117;SHT31;58775;46.992;9.518;2023-05-29T11:57:30;29.80;43.69
71117;SHT31;58775;46.992;9.518;2023-05-29T12:02:23;30.38;40.91
71117;SHT31;58775;46.992;9.518;2023-05-29T12:04:31;30.02;40.44
71117;SHT31;58775;46.992;9.518;2023-05-29T12:06:38;30.69;41.89
71117;SHT31;58775;46.992;9.518;2023-05-29T12:08:51;30.46;40.46
71117;SHT31;58775;46.992;9.518;2023-05-29T12:10:55;29.88;39.10
71117;SHT31;58775;46.992;9.518;2023-05-29T12:13:03;29.27;45.42
71117;SHT31;58775;46.992;9.518;2023-05-29T12:15:16;30.41;42.95
71117;SHT31;58775;46.992;9.518;2023-05-29T12:17:20;29.74;40.71
71117;SHT31;58775;46.992;9.518;2023-05-29T12:19:30;30.45;39.83
71117;SHT31;58775;46.992;9.518;2023-05-29T12:21:34;30.68;40.95
71117;SHT31;58775;46.992;9.518;2023-05-29T12:23:39;30.36;41.97
71117;SHT31;58775;46.992;9.518;2023-05-29T12:25:51;30.46;39.88
71117;SHT31;58775;46.992;9.518;2023-05-29T12:27:58;29.88;42.79
71117;SHT31;58775;46.992;9.518;2023-05-29T12:30:06;31.12;40.92
71117;SHT31;58775;46.992;9.518;2023-05-29T12:38:30;30.75;40.08
71117;SHT31;58775;46.992;9.518;2023-05-29T12:43:06;30.51;40.11
71117;SHT31;58775;46.992;9.518;2023-05-29T12:45:13;30.36;41.17
71117;SHT31;58775;46.992;9.518;2023-05-29T12:47:23;31.00;39.52
71117;SHT31;58775;46.992;9.518;2023-05-29T12:55:42;30.27;39.41
71117;SHT31;58775;46.992;9.518;2023-05-29T12:57:45;30.71;40.75
71117;SHT31;58775;46.992;9.518;2023-05-29T12:59:48;30.28;41.81
71117;SHT31;58775;46.992;9.518;2023-05-29T13:01:49;30.45;40.51
71117;SHT31;58775;46.992;9.518;2023-05-29T13:03:51;30.62;37.50
71117;SHT31;58775;46.992;9.518;2023-05-29T13:05:53;30.48;39.96
71117;SHT31;58775;46.992;9.518;2023-05-29T13:07:56;30.25;40.91
71117;SHT31;58775;46.992;9.518;2023-05-29T13:10:00;29.67;39.46
71117;SHT31;58775;46.992;9.518;2023-05-29T13:12:35;29.56;38.92
71117;SHT31;58775;46.992;9.518;2023-05-29T13:31:58;28.67;42.31
71117;SHT31;58775;46.992;9.518;2023-05-29T13:47:24;29.10;41.36
71117;SHT31;58775;46.992;9.518;2023-05-29T13:49:31;28.68;42.69
71117;SHT31;58775;46.992;9.518;2023-05-29T13:51:34;28.74;40.38
71117;SHT31;58775;46.992;9.518;2023-05-29T13:53:38;28.54;43.93
71117;SHT31;58775;46.992;9.518;2023-05-29T14:06:10;28.06;42.67
71117;SHT31;58775;46.992;9.518;2023-05-29T14:11:33;28.04;44.11
71117;SHT31;58775;46.992;9.518;2023-05-29T14:17:02;27.62;43.19
71117;SHT31;58775;46.992;9.518;2023-05-29T14:19:12;27.41;42.79
71117;SHT31;58775;46.992;9.518;2023-05-29T14:27:38;27.82;43.19
71117;SHT31;58775;46.992;9.518;2023-05-29T14:29:40;27.74;43.50
71117;SHT31;58775;46.992;9.518;2023-05-29T14:31:44;27.52;42.62
71117;SHT31;58775;46.992;9.518;2023-05-29T14:33:46;27.12;43.06
71117;SHT31;58775;46.992;9.518;2023-05-29T14:35:49;27.32;42.15
71117;SHT31;58775;46.992;9.518;2023-05-29T14:37:52;26.80;42.41
71117;SHT31;58775;46.992;9.518;2023-05-29T14:39:54;26.99;43.47
71117;SHT31;58775;46.992;9.518;2023-05-29T14:41:58;27.15;43.72
71117;SHT31;58775;46.992;9.518;2023-05-29T14:44:04;26.92;42.40
71117;SHT31;58775;46.992;9.518;2023-05-29T14:46:06;26.84;48.86
71117;SHT31;58775;46.992;9.518;2023-05-29T14:48:09;26.70;43.05
71117;SHT31;58775;46.992;9.518;2023-05-29T14:50:12;26.70;47.73
71117;SHT31;58775;46.992;9.518;2023-05-29T14:52:17;26.76;45.42
71117;SHT31;58775;46.992;9.518;2023-05-29T14:54:20;26.99;44.29
71117;SHT31;58775;46.992;9.518;2023-05-29T14:56:23;26.88;45.87
71117;SHT31;58775;46.992;9.518;2023-05-29T14:58:26;26.84;43.40
71117;SHT31;58775;46.992;9.518;2023-05-29T15:00:28;26.83;43.09
71117;SHT31;58775;46.992;9.518;2023-05-29T15:02:31;26.92;41.47
71117;SHT31;58775;46.992;9.518;2023-05-29T15:04:35;26.47;44.76
71117;SHT31;58775;46.992;9.518;2023-05-29T15:06:37;26.67;43.32
71117;SHT31;58775;46.992;9.518;2023-05-29T15:08:41;26.70;48.53
71117;SHT31;58775;46.992;9.518;2023-05-29T15:11:02;26.13;41.85
71117;SHT31;58775;46.992;9.518;2023-05-29T15:13:35;26.30;44.46
71117;SHT31;58775;46.992;9.518;2023-05-29T15:15:52;26.27;44.32
71117;SHT31;58775;46.992;9.518;2023-05-29T15:17:56;26.39;43.34
71117;SHT31;58775;46.992;9.518;2023-05-29T15:20:40;26.44;42.35
71117;SHT31;58775;46.992;9.518;2023-05-29T15:22:41;26.48;43.47
71117;SHT31;58775;46.992;9.518;2023-05-29T15:24:44;26.27;44.97
71117;SHT31;58775;46.992;9.518;2023-05-29T15:26:47;25.86;43.88
71117;SHT31;58775;46.992;9.518;2023-05-29T15:28:51;25.96;46.93
71117;SHT31;58775;46.992;9.518;2023-05-29T15:30:53;25.90;43.79
71117;SHT31;58775;46.992;9.518;2023-05-29T15:32:56;26.13;44.18
71117;SHT31;58775;46.992;9.518;2023-05-29T15:34:58;25.74;44.58
71117;SHT31;58775;46.992;9.518;2023-05-29T15:37:01;25.95;44.18
71117;SHT31;58775;46.992;9.518;2023-05-29T15:39:12;25.11;47.60
71117;SHT31;58775;46.992;9.518;2023-05-29T15:41:18;25.00;45.68
71117;SHT31;58775;46.992;9.518;2023-05-29T15:43:22;25.18;45.23
71117;SHT31;58775;46.992;9.518;2023-05-29T15:45:24;25.38;45.06
71117;SHT31;58775;46.992;9.518;2023-05-29T15:47:28;25.08;44.90
71117;SHT31;58775;46.992;9.518;2023-05-29T15:49:30;25.21;45.81
71117;SHT31;58775;46.992;9.518;2023-05-29T15:51:34;25.14;44.68
71117;SHT31;58775;46.992;9.518;2023-05-29T15:53:42;25.24;44.05
71117;SHT31;58775;46.992;9.518;2023-05-29T15:55:45;25.08;47.21
71117;SHT31;58775;46.992;9.518;2023-05-29T15:57:48;25.07;44.46
71117;SHT31;58775;46.992;9.518;2023-05-29T15:59:51;24.98;45.90
71117;SHT31;58775;46.992;9.518;2023-05-29T16:01:55;24.97;44.36
71117;SHT31;58775;46.992;9.518;2023-05-29T16:03:59;25.14;43.86
71117;SHT31;58775;46.992;9.518;2023-05-29T16:06:02;25.13;46.20
71117;SHT31;58775;46.992;9.518;2023-05-29T16:08:08;24.56;51.10
71117;SHT31;58775;46.992;9.518;2023-05-29T16:10:12;24.77;45.89
71117;SHT31;58775;46.992;9.518;2023-05-29T16:12:14;24.77;47.69
71117;SHT31;58775;46.992;9.518;2023-05-29T16:14:16;24.43;46.76
71117;SHT31;58775;46.992;9.518;2023-05-29T16:16:21;24.18;51.10
71117;SHT31;58775;46.992;9.518;2023-05-29T16:18:23;24.25;47.67
71117;SHT31;58775;46.992;9.518;2023-05-29T16:20:26;24.26;45.70
71117;SHT31;58775;46.992;9.518;2023-05-29T16:22:29;24.23;46.49
71117;SHT31;58775;46.992;9.518;2023-05-29T16:24:33;24.21;47.80
71117;SHT31;58775;46.992;9.518;2023-05-29T16:26:35;23.57;51.25
71117;SHT31;58775;46.992;9.518;2023-05-29T16:28:38;23.50;51.74
71117;SHT31;58775;46.992;9.518;2023-05-29T16:30:40;23.28;53.62
71117;SHT31;58775;46.992;9.518;2023-05-29T16:32:42;23.50;49.20
71117;SHT31;58775;46.992;9.518;2023-05-29T16:34:43;23.62;49.45
71117;SHT31;58775;46.992;9.518;2023-05-29T16:36:45;23.40;47.95
71117;SHT31;58775;46.992;9.518;2023-05-29T16:38:49;23.61;48.33
71117;SHT31;58775;46.992;9.518;2023-05-29T16:40:51;23.47;52.80
71117;SHT31;58775;46.992;9.518;2023-05-29T16:42:54;23.30;50.20
71117;SHT31;58775;46.992;9.518;2023-05-29T16:44:56;23.04;56.25
71117;SHT31;58775;46.992;9.518;2023-05-29T16:46:58;22.96;52.49
71117;SHT31;58775;46.992;9.518;2023-05-29T16:49:03;22.77;53.72
71117;SHT31;58775;46.992;9.518;2023-05-29T16:51:07;22.92;51.44
71117;SHT31;58775;46.992;9.518;2023-05-29T16:53:09;22.68;52.92
71117;SHT31;58775;46.992;9.518;2023-05-29T16:55:11;22.85;49.92
71117;SHT31;58775;46.992;9.518;2023-05-29T16:57:13;22.82;49.89
71117;SHT31;58775;46.992;9.518;2023-05-29T16:59:16;22.92;49.96
71117;SHT31;58775;46.992;9.518;2023-05-29T17:01:19;22.99;48.02
71117;SHT31;58775;46.992;9.518;2023-05-29T17:03:21;22.65;54.73
71117;SHT31;58775;46.992;9.518;2023-05-29T17:05:24;22.56;51.95
71117;SHT31;58775;46.992;9.518;2023-05-29T17:07:25;22.79;51.65
71117;SHT31;58775;46.992;9.518;2023-05-29T17:09:27;22.92;47.41
71117;SHT31;58775;46.992;9.518;2023-05-29T17:11:30;22.37;55.98
71117;SHT31;58775;46.992;9.518;2023-05-29T17:17:26;22.31;54.63
71117;SHT31;58775;46.992;9.518;2023-05-29T17:19:28;22.10;57.18
71117;SHT31;58775;46.992;9.518;2023-05-29T17:21:31;21.97;54.93
71117;SHT31;58775;46.992;9.518;2023-05-29T17:23:32;21.69;60.61
71117;SHT31;58775;46.992;9.518;2023-05-29T17:25:35;21.74;58.07
71117;SHT31;58775;46.992;9.518;2023-05-29T17:27:39;21.74;58.61
71117;SHT31;58775;46.992;9.518;2023-05-29T17:29:41;21.45;57.65
71117;SHT31;58775;46.992;9.518;2023-05-29T17:31:44;21.69;51.68
71117;SHT31;58775;46.992;9.518;2023-05-29T17:33:47;21.94;50.89
71117;SHT31;58775;46.992;9.518;2023-05-29T17:35:50;22.02;51.80
71117;SHT31;58775;46.992;9.518;2023-05-29T17:37:51;21.76;54.93
71117;SHT31;58775;46.992;9.518;2023-05-29T17:39:54;21.49;57.24
71117;SHT31;58775;46.992;9.518;2023-05-29T17:41:56;21.76;52.87
71117;SHT31;58775;46.992;9.518;2023-05-29T17:43:58;21.81;51.83
71117;SHT31;58775;46.992;9.518;2023-05-29T17:46:01;21.93;53.11
71117;SHT31;58775;46.992;9.518;2023-05-29T17:48:03;21.97;51.86
71117;SHT31;58775;46.992;9.518;2023-05-29T17:50:07;21.87;52.23
71117;SHT31;58775;46.992;9.518;2023-05-29T17:52:11;21.94;50.16
71117;SHT31;58775;46.992;9.518;2023-05-29T17:54:13;22.01;49.34
71117;SHT31;58775;46.992;9.518;2023-05-29T17:56:14;22.01;50.55
71117;SHT31;58775;46.992;9.518;2023-05-29T17:58:17;21.90;50.70
71117;SHT31;58775;46.992;9.518;2023-05-29T18:00:20;21.94;50.95
71117;SHT31;58775;46.992;9.518;2023-05-29T18:02:53;21.94;50.60
71117;SHT31;58775;46.992;9.518;2023-05-29T18:05:34;21.83;53.34
71117;SHT31;58775;46.992;9.518;2023-05-29T18:17:07;21.64;50.77
71117;SHT31;58775;46.992;9.518;2023-05-29T18:37:46;21.70;49.37
